CYQR

Regina International Airport

Regina, Saskatchewan, Canada
METAR CYQR 190000Z 10009KT 10SM -SN OVC045 M08/M11 A2999 RMK SC8 SLP198
Observed Flight Rules
Nov-19 @ 00:00 UTC (59 minutes ago) Visual Flight Rules
Wind Visibility Clouds Conditions
100° at 9 knots 10 miles
  • Overcast at 4,500' AGL
  • Light Snow
Temperatures Readings
Current -8°C / 18°F
Dewpoint -11°C / 12°F
Humidity 79%
Altimeter 29.99" Hg
Pressure 1019.8 hPa
Elevation 577
METAR CYQR 190000Z 10009KT 10SM -SN OVC045 M08/M11 A2999 RMK SC8 SLP198
Observed Flight Rules
Nov-19 @ 00:00 UTC
(59 minutes ago)
VFR
Wind Visibility
100° at 9 knots 10 miles
Clouds
  • Overcast at 4,500' AGL
Conditions
  • Light Snow
Temperature Dewpoint
-8°C / 18°F -11°C / 12°F
Humidity Altimeter Pressure
79% 29.99" Hg 1019.8 hPa